Camden On Gauley, West Virginia
Current Conditions -  °F | °C
As of 6:15 AM on Thursday 23 Oct 2014 (Local Time) from KLWB Reporting Station
Overcast Overcast  
Wind Chill: 42°   Ceiling: 2200
Heat Index: 46°   Visibility: 10mi
Dew Point: 37°   Wind: 7mph
Humidity: 72%   Direction: 350°N
Pressure: 30.11"   Gusts: NA
Location:  38.37°N, 80.6°W
Report Text: KLWB 231015Z AUTO 35006KT 10SM OVC022 08/03 A3011 RMK AO2 T00770030
Loading
Personal Weather Stations






























Interactive Weather Map
Tropical Storm Tracking
New forecast layout! Learn more

10-Day Weather Forecast

Advertisements
Track Severe Weather on mobile